Time;durP1;ratioP1;P1;durP2;ratioP2;P2;SDS_P1;SDS_P2;PMS_P1;PMS_P2;Temp;Humidity;BMP_temperature;BMP_pressure;BME280_temperature;BME280_humidity;BME280_pressure;Samples;Min_cycle;Max_cycle;Signal;HPM_P1;HPM_P2
2023/07/19 00:01:20;;;;;;;0.40;0.40;;;;;;;26.70;52.33;99541.69;4412059;32;34442;-85
2023/07/19 00:03:48;;;;;;;0.68;0.68;;;;;;;26.88;51.84;99541.44;4417831;32;33216;-86
2023/07/19 00:06:16;;;;;;;0.80;0.80;;;;;;;26.91;52.08;99547.31;4425524;32;33608;-86
2023/07/19 00:08:43;;;;;;;0.95;0.90;;;;;;;26.96;51.99;99541.38;4418823;32;32611;-85
2023/07/19 00:11:11;;;;;;;1.45;1.33;;;;;;;26.84;51.76;99535.53;4416154;32;33544;-85
2023/07/19 00:13:38;;;;;;;1.45;0.93;;;;;;;26.61;52.20;99521.94;4427026;32;34105;-85
2023/07/19 00:16:06;;;;;;;0.77;0.73;;;;;;;26.16;53.29;99522.56;4397101;32;31957;-85
2023/07/19 00:18:33;;;;;;;1.58;1.05;;;;;;;25.90;54.18;99522.81;4422515;32;33939;-86
2023/07/19 00:21:01;;;;;;;3.87;1.33;;;;;;;25.93;54.38;99525.19;4422644;32;33629;-85
2023/07/19 00:23:28;;;;;;;1.08;1.02;;;;;;;26.04;53.95;99524.81;4424394;32;33857;-85
2023/07/19 00:25:56;;;;;;;1.10;0.77;;;;;;;25.98;54.08;99515.53;4411155;32;32828;-85
2023/07/19 00:28:24;;;;;;;0.30;0.30;;;;;;;26.01;53.76;99501.66;4425514;32;34406;-85
2023/07/19 00:31:03;;;;;;;0.98;0.90;;;;;;;25.86;54.44;99491.72;4396109;32;34083;-85
2023/07/19 00:33:31;;;;;;;1.23;1.12;;;;;;;25.84;54.35;99491.91;4413913;32;34956;-85
2023/07/19 00:35:59;;;;;;;0.55;0.37;;;;;;;25.84;54.34;99491.06;4409806;32;31778;-85
2023/07/19 00:38:26;;;;;;;0.73;0.57;;;;;;;25.88;54.03;99495.97;4414021;32;32371;-85
2023/07/19 00:40:54;;;;;;;0.17;0.17;;;;;;;25.90;53.95;99506.59;4423928;32;34010;-85
2023/07/19 00:43:23;;;;;;;3.15;0.95;;;;;;;25.92;53.79;99504.56;4409376;32;33758;-85
2023/07/19 00:45:54;;;;;;;1.65;0.68;;;;;;;25.95;53.43;99488.81;4411791;32;33187;-86
2023/07/19 00:48:23;;;;;;;0.93;0.57;;;;;;;25.84;53.50;99488.38;4410317;32;33944;-85
2023/07/19 00:50:52;;;;;;;0.40;0.40;;;;;;;25.83;53.46;99483.94;4413968;32;34022;-85
2023/07/19 00:53:20;;;;;;;0.32;0.32;;;;;;;25.83;53.43;99494.75;4430299;32;33950;-85
2023/07/19 00:55:49;;;;;;;0.60;0.60;;;;;;;25.81;52.87;99488.69;4427280;32;34018;-85
2023/07/19 00:58:18;;;;;;;0.62;0.62;;;;;;;25.68;53.38;99468.41;4410168;32;33864;-85
2023/07/19 01:00:48;;;;;;;1.42;1.33;;;;;;;25.67;53.53;99469.41;4399699;32;33705;-85
2023/07/19 01:03:18;;;;;;;0.93;0.90;;;;;;;25.71;53.49;99469.91;4412920;32;34759;-85
2023/07/19 01:05:46;;;;;;;1.60;0.88;;;;;;;25.73;53.53;99452.53;4406085;32;33576;-85
2023/07/19 01:08:14;;;;;;;2.15;1.02;;;;;;;25.73;53.42;99457.94;4400172;32;33627;-85
2023/07/19 01:10:42;;;;;;;1.40;0.77;;;;;;;25.87;52.88;99467.19;4416329;32;32094;-85
2023/07/19 01:13:11;;;;;;;0.60;0.60;;;;;;;25.60;53.50;99489.22;4409399;32;34109;-85
2023/07/19 01:15:42;;;;;;;0.77;0.77;;;;;;;25.40;54.50;99486.00;4396410;32;33351;-85
2023/07/19 01:18:10;;;;;;;0.37;0.32;;;;;;;25.54;54.02;99479.91;4412586;32;33801;-85
2023/07/19 01:20:37;;;;;;;0.85;0.82;;;;;;;25.52;53.97;99482.78;4414867;32;34691;-85
2023/07/19 01:23:05;;;;;;;0.73;0.65;;;;;;;25.58;53.80;99486.66;4411990;32;34376;-85
2023/07/19 01:25:33;;;;;;;0.65;0.65;;;;;;;25.65;53.65;99478.72;4429559;32;33218;-85
2023/07/19 01:28:00;;;;;;;1.77;1.17;;;;;;;25.57;53.98;99473.31;4409553;32;31997;-85
2023/07/19 01:30:28;;;;;;;0.30;0.30;;;;;;;25.62;53.75;99466.38;4411309;32;33598;-85
2023/07/19 01:32:56;;;;;;;1.20;1.08;;;;;;;25.39;54.46;99466.25;4409010;32;33784;-85
2023/07/19 01:35:24;;;;;;;0.65;0.65;;;;;;;25.45;54.49;99479.09;4430541;32;33633;-85
2023/07/19 01:37:52;;;;;;;0.80;0.77;;;;;;;25.54;54.14;99469.09;4398368;32;33363;-85
2023/07/19 01:40:22;;;;;;;1.10;0.55;;;;;;;25.50;54.13;99467.78;4412376;32;33239;-85
2023/07/19 01:42:51;;;;;;;0.93;0.57;;;;;;;25.36;54.60;99457.66;4416515;32;33861;-85
2023/07/19 01:45:18;;;;;;;2.05;1.30;;;;;;;25.37;54.71;99459.34;4402976;32;33459;-85
2023/07/19 01:47:46;;;;;;;3.92;1.15;;;;;;;25.45;54.33;99464.75;4408336;32;34298;-85
2023/07/19 01:50:14;;;;;;;1.95;1.08;;;;;;;25.37;54.42;99459.34;4422309;32;33651;-85
2023/07/19 01:52:41;;;;;;;1.00;1.00;;;;;;;25.32;54.65;99450.91;4409481;32;34127;-85
2023/07/19 01:55:11;;;;;;;5.93;0.75;;;;;;;25.27;54.87;99456.81;4421366;32;34364;-85
2023/07/19 01:57:38;;;;;;;0.40;0.40;;;;;;;25.28;54.77;99463.91;4412518;32;33937;-85
2023/07/19 02:00:07;;;;;;;0.50;0.50;;;;;;;25.14;55.07;99462.72;4398326;32;32649;-85
2023/07/19 02:02:42;;;;;;;0.37;0.37;;;;;;;25.23;54.67;99464.41;4427310;32;34275;-85
2023/07/19 02:05:10;;;;;;;0.55;0.55;;;;;;;25.08;54.83;99463.41;4408022;32;33236;-85
2023/07/19 02:07:38;;;;;;;0.28;0.28;;;;;;;25.16;54.06;99466.09;4410980;32;33435;-85
2023/07/19 02:10:06;;;;;;;5.47;1.02;;;;;;;25.03;54.32;99471.97;4402359;32;34694;-85
2023/07/19 02:12:34;;;;;;;1.48;0.82;;;;;;;25.16;53.85;99465.22;4397715;32;32820;-85
2023/07/19 02:15:01;;;;;;;0.57;0.57;;;;;;;25.00;54.48;99476.84;4404334;32;32955;-85
2023/07/19 02:17:30;;;;;;;0.20;0.20;;;;;;;25.00;54.40;99482.25;4420899;32;33549;-85
2023/07/19 02:19:58;;;;;;;1.30;0.65;;;;;;;25.02;54.38;99481.09;4412349;32;33571;-85
2023/07/19 02:22:26;;;;;;;1.17;0.88;;;;;;;25.10;53.96;99479.44;4421090;32;33450;-85
2023/07/19 02:24:54;;;;;;;1.12;0.70;;;;;;;25.13;53.66;99490.75;4424147;32;34014;-85
2023/07/19 02:27:22;;;;;;;1.37;1.20;;;;;;;25.14;53.72;99503.22;4422021;32;33919;-85
2023/07/19 02:29:49;;;;;;;1.98;1.05;;;;;;;25.14;53.74;99495.12;4428863;32;33594;-85
2023/07/19 02:32:17;;;;;;;0.50;0.50;;;;;;;25.11;54.05;99497.31;4409412;32;34864;-85
2023/07/19 02:34:44;;;;;;;9.48;0.73;;;;;;;25.18;53.76;99492.94;4411369;32;32400;-85
2023/07/19 02:37:12;;;;;;;0.50;0.50;;;;;;;25.39;52.99;99487.88;4422287;32;33929;-85
2023/07/19 02:39:41;;;;;;;0.28;0.28;;;;;;;25.26;53.33;99501.91;4399023;32;33298;-84
2023/07/19 02:42:10;;;;;;;0.10;0.10;;;;;;;25.10;54.05;99491.06;4405555;32;34846;-85
2023/07/19 02:44:37;;;;;;;0.28;0.28;;;;;;;25.02;54.35;99491.91;4411016;32;34068;-85
2023/07/19 02:47:08;;;;;;;0.82;0.45;;;;;;;25.00;54.33;99487.66;4415335;32;33163;-85
2023/07/19 02:49:35;;;;;;;0.80;0.80;;;;;;;25.11;53.90;99489.22;4408893;32;34060;-85
2023/07/19 02:52:10;;;;;;;1.17;0.65;;;;;;;24.97;54.34;99485.28;4430191;32;34267;-85
2023/07/19 02:54:39;;;;;;;0.60;0.60;;;;;;;24.97;54.37;99493.38;4412312;32;34154;-85
2023/07/19 02:57:07;;;;;;;1.37;0.98;;;;;;;24.94;54.53;99494.56;4409032;32;32818;-85
2023/07/19 02:59:34;;;;;;;2.08;1.23;;;;;;;24.95;54.45;99492.72;4410672;32;33587;-85
2023/07/19 03:02:02;;;;;;;0.45;0.45;;;;;;;24.93;54.48;99475.84;4430514;32;34545;-85
2023/07/19 03:04:30;;;;;;;1.40;1.12;;;;;;;24.81;55.02;99463.66;4401046;32;32149;-85
2023/07/19 03:06:58;;;;;;;0.30;0.30;;;;;;;24.95;54.47;99466.56;4423086;32;33122;-85
2023/07/19 03:09:26;;;;;;;0.28;0.28;;;;;;;24.83;54.87;99475.13;4414431;32;33319;-85
2023/07/19 03:11:54;;;;;;;0.57;0.57;;;;;;;24.82;55.13;99479.69;4403696;32;34193;-85
2023/07/19 03:14:21;;;;;;;2.05;1.05;;;;;;;24.83;54.98;99477.84;4409314;32;32178;-85
2023/07/19 03:16:49;;;;;;;0.75;0.68;;;;;;;24.84;55.01;99479.53;4409456;32;32457;-85
2023/07/19 03:19:19;;;;;;;0.80;0.75;;;;;;;24.93;54.64;99481.25;4405438;32;33626;-85
2023/07/19 03:21:46;;;;;;;0.82;0.82;;;;;;;24.77;55.35;99482.03;4421911;32;34106;-85
2023/07/19 03:24:14;;;;;;;2.25;1.73;;;;;;;24.64;55.98;99476.28;4408501;32;33634;-85
2023/07/19 03:26:42;;;;;;;0.20;0.20;;;;;;;24.74;55.72;99477.84;4432789;32;35184;-85
2023/07/19 03:29:10;;;;;;;10.88;1.67;;;;;;;24.80;55.29;99478.19;4412387;32;34711;-85
2023/07/19 03:31:38;;;;;;;1.37;0.62;;;;;;;24.69;55.67;99480.19;4423268;32;34217;-85
2023/07/19 03:34:06;;;;;;;0.17;0.17;;;;;;;24.67;55.73;99482.19;4404401;32;32026;-85
2023/07/19 03:36:33;;;;;;;0.85;0.68;;;;;;;24.71;55.74;99470.06;4432535;32;33025;-85
2023/07/19 03:39:03;;;;;;;2.12;1.05;;;;;;;24.75;55.73;99463.31;4420922;32;34672;-85
2023/07/19 03:41:31;;;;;;;0.10;0.10;;;;;;;24.77;55.79;99472.09;4410081;32;33220;-85
2023/07/19 03:43:59;;;;;;;1.73;1.60;;;;;;;24.76;55.71;99473.09;4429250;32;32817;-85
2023/07/19 03:46:27;;;;;;;1.52;0.90;;;;;;;24.75;55.89;99463.31;4431745;32;34660;-85
2023/07/19 03:48:56;;;;;;;1.02;0.60;;;;;;;24.70;56.12;99459.44;4410436;32;33976;-85
2023/07/19 03:51:23;;;;;;;1.92;1.17;;;;;;;24.67;55.98;99470.56;4410658;32;34735;-85
2023/07/19 03:53:51;;;;;;;0.68;0.65;;;;;;;24.72;55.82;99471.75;4423369;32;33988;-85
2023/07/19 03:56:20;;;;;;;13.27;0.88;;;;;;;24.68;55.90;99467.69;4410945;32;33232;-85
2023/07/19 03:58:49;;;;;;;1.80;1.35;;;;;;;24.62;56.08;99465.66;4401918;32;32142;-85
2023/07/19 04:01:17;;;;;;;0.35;0.35;;;;;;;24.73;55.88;99470.72;4431653;32;33465;-85
2023/07/19 04:03:45;;;;;;;2.85;1.85;;;;;;;24.64;56.05;99474.44;4415157;32;33579;-85
2023/07/19 04:06:17;;;;;;;0.60;0.37;;;;;;;24.65;56.04;99478.84;4414959;32;33420;-85
2023/07/19 04:08:44;;;;;;;2.12;0.80;;;;;;;24.77;55.71;99485.59;4393377;32;32451;-85
2023/07/19 04:11:12;;;;;;;8.48;1.02;;;;;;;24.90;55.32;99482.41;4415875;32;34006;-85
2023/07/19 04:13:40;;;;;;;2.28;1.45;;;;;;;25.15;54.78;99480.59;4430136;32;32594;-85
2023/07/19 04:16:08;;;;;;;0.15;0.15;;;;;;;25.41;54.04;99480.44;4403780;32;32929;-84
2023/07/19 04:18:35;;;;;;;2.15;0.57;;;;;;;25.46;53.46;99479.94;4403182;32;32432;-85
2023/07/19 04:21:03;;;;;;;1.35;0.80;;;;;;;25.28;54.59;99490.91;4427994;32;33835;-85
2023/07/19 04:23:30;;;;;;;1.52;1.42;;;;;;;25.34;54.41;99497.50;4428820;32;33529;-85
2023/07/19 04:25:58;;;;;;;1.17;1.00;;;;;;;25.47;54.09;99492.44;4416119;32;32642;-85
2023/07/19 04:28:27;;;;;;;1.83;0.98;;;;;;;25.57;53.84;99489.53;4430368;32;33361;-85
2023/07/19 04:30:54;;;;;;;0.77;0.77;;;;;;;25.81;52.91;99491.41;4404489;32;32997;-85
2023/07/19 04:33:22;;;;;;;0.40;0.40;;;;;;;25.83;53.10;99489.34;4415961;32;32027;-85
2023/07/19 04:35:50;;;;;;;0.65;0.57;;;;;;;25.68;53.23;99498.13;4417278;32;33600;-85
2023/07/19 04:38:18;;;;;;;0.47;0.45;;;;;;;25.78;52.22;99506.13;4413768;32;34015;-85
2023/07/19 04:40:46;;;;;;;1.90;1.15;;;;;;;25.96;51.77;99500.47;4415642;32;32851;-85
2023/07/19 04:43:13;;;;;;;0.65;0.65;;;;;;;25.99;51.61;99498.28;4430369;32;32801;-85
2023/07/19 04:45:43;;;;;;;0.30;0.30;;;;;;;26.11;51.54;99500.59;4404748;32;32655;-85
2023/07/19 04:48:12;;;;;;;1.45;1.00;;;;;;;26.23;51.48;99501.94;4426530;32;33670;-85
2023/07/19 04:50:39;;;;;;;0.80;0.65;;;;;;;26.44;51.04;99498.66;4429982;32;34108;-85
2023/07/19 04:53:07;;;;;;;1.17;1.08;;;;;;;26.59;50.46;99496.91;4403121;32;33075;-85
2023/07/19 04:55:34;;;;;;;0.30;0.30;;;;;;;26.65;50.39;99496.19;4429277;32;33943;-84
2023/07/19 04:58:02;;;;;;;1.98;0.88;;;;;;;26.83;50.27;99493.22;4415076;32;33248;-85
2023/07/19 05:00:30;;;;;;;0.43;0.43;;;;;;;26.75;50.60;99495.97;4418150;32;34958;-85
2023/07/19 05:02:58;;;;;;;0.50;0.50;;;;;;;26.84;50.06;99496.75;4416715;32;33327;-85
2023/07/19 05:05:26;;;;;;;0.22;0.22;;;;;;;27.06;50.08;99490.47;4419763;32;32471;-85
2023/07/19 05:07:53;;;;;;;0.08;0.08;;;;;;;27.13;49.91;99490.66;4430166;32;34115;-85
2023/07/19 05:10:21;;;;;;;1.35;0.62;;;;;;;27.30;49.56;99479.50;4416747;32;34044;-85
2023/07/19 05:12:49;;;;;;;0.62;0.52;;;;;;;27.26;50.12;99482.75;4428142;32;32911;-84
2023/07/19 05:15:17;;;;;;;0.73;0.73;;;;;;;27.64;48.46;99497.16;4432762;32;34292;-85
2023/07/19 05:17:45;;;;;;;1.62;1.10;;;;;;;27.14;50.00;99492.34;4429216;32;34813;-85
2023/07/19 05:20:12;;;;;;;2.12;1.30;;;;;;;27.15;49.81;99491.31;4414752;32;33661;-85
2023/07/19 05:22:40;;;;;;;0.32;0.32;;;;;;;27.64;49.16;99474.63;4404870;32;33086;-85
2023/07/19 05:25:09;;;;;;;5.37;2.10;;;;;;;27.60;48.75;99474.16;4428405;32;33917;-85
2023/07/19 05:27:36;;;;;;;0.30;0.30;;;;;;;27.09;50.38;99475.78;4433661;32;33502;-85
2023/07/19 05:30:05;;;;;;;0.95;0.80;;;;;;;26.91;50.86;99478.75;4419464;32;34247;-85
2023/07/19 05:32:32;;;;;;;8.98;0.93;;;;;;;27.18;50.60;99486.38;4425856;32;34462;-85
2023/07/19 05:35:01;;;;;;;1.30;1.05;;;;;;;27.51;50.08;99486.09;4432853;32;33918;-85
2023/07/19 05:37:29;;;;;;;0.45;0.45;;;;;;;27.62;49.73;99492.94;4404537;32;33010;-85
2023/07/19 05:39:57;;;;;;;1.42;1.27;;;;;;;27.44;49.40;99480.56;4417858;32;33823;-85
2023/07/19 05:42:24;;;;;;;0.30;0.30;;;;;;;27.54;49.19;99485.75;4405361;32;33063;-85
2023/07/19 05:44:52;;;;;;;0.20;0.20;;;;;;;27.66;48.56;99489.66;4427478;32;34608;-85
2023/07/19 05:47:19;;;;;;;1.17;0.88;;;;;;;27.84;48.08;99491.22;4431611;32;34702;-85
2023/07/19 05:49:47;;;;;;;1.08;0.68;;;;;;;27.56;48.35;99505.37;4402417;32;32582;-85
2023/07/19 05:52:14;;;;;;;0.45;0.45;;;;;;;27.61;48.34;99507.53;4415029;32;34243;-85
2023/07/19 05:54:42;;;;;;;0.82;0.82;;;;;;;27.65;48.52;99503.44;4414859;32;33630;-85
2023/07/19 05:57:10;;;;;;;8.73;1.35;;;;;;;27.79;49.26;99506.19;4405666;32;32406;-85
2023/07/19 05:59:37;;;;;;;0.60;0.60;;;;;;;27.99;48.50;99503.78;4429741;32;33794;-85
2023/07/19 06:02:05;;;;;;;1.40;0.40;;;;;;;28.08;48.60;99513.50;4428266;32;32342;-85
2023/07/19 06:04:33;;;;;;;0.43;0.28;;;;;;;28.22;48.12;99511.81;4405500;32;33272;-85
2023/07/19 06:07:01;;;;;;;1.90;1.40;;;;;;;28.37;47.77;99509.12;4405172;32;33859;-85
2023/07/19 06:09:30;;;;;;;0.50;0.50;;;;;;;28.40;47.25;99507.94;4418134;32;34157;-85
2023/07/19 06:11:58;;;;;;;0.73;0.40;;;;;;;28.35;47.85;99499.50;4403621;32;32349;-85
2023/07/19 06:14:25;;;;;;;0.35;0.35;;;;;;;28.28;48.52;99505.63;4428187;32;33789;-85
2023/07/19 06:16:53;;;;;;;0.30;0.30;;;;;;;28.36;48.46;99507.47;4415746;32;32722;-85
2023/07/19 06:19:21;;;;;;;0.35;0.35;;;;;;;28.40;48.02;99507.94;4414612;32;34487;-86
2023/07/19 06:21:49;;;;;;;1.75;0.52;;;;;;;28.26;47.89;99512.31;4401645;32;32043;-85
2023/07/19 06:24:16;;;;;;;0.40;0.30;;;;;;;28.40;48.18;99502.50;4428058;32;33674;-85
2023/07/19 06:26:44;;;;;;;2.03;1.23;;;;;;;28.48;48.17;99499.66;4415937;32;34123;-85
2023/07/19 06:29:11;;;;;;;0.30;0.30;;;;;;;28.44;48.16;99506.50;4429603;32;33730;-85
2023/07/19 06:31:39;;;;;;;0.75;0.75;;;;;;;28.77;47.81;99509.59;4432755;32;33294;-85
2023/07/19 06:34:07;;;;;;;0.62;0.45;;;;;;;28.90;46.67;99503.50;4396795;32;31998;-85
2023/07/19 06:36:34;;;;;;;1.48;1.02;;;;;;;28.39;47.51;99507.09;4434125;32;34824;-85
2023/07/19 06:39:02;;;;;;;1.35;0.85;;;;;;;28.73;46.92;99497.47;4413891;32;32685;-85
2023/07/19 06:41:30;;;;;;;0.30;0.30;;;;;;;29.19;46.18;99495.25;4417823;32;33279;-85
2023/07/19 06:43:57;;;;;;;5.12;0.95;;;;;;;29.42;46.69;99491.47;4416576;32;33847;-85
2023/07/19 06:46:25;;;;;;;0.32;0.30;;;;;;;29.02;46.56;99480.25;4433215;32;34869;-85
2023/07/19 06:48:53;;;;;;;0.52;0.52;;;;;;;29.18;46.25;99479.97;4417290;32;33984;-85
2023/07/19 06:51:20;;;;;;;0.80;0.70;;;;;;;28.97;47.59;99483.53;4421365;32;33588;-85
2023/07/19 06:53:48;;;;;;;1.25;0.98;;;;;;;29.40;46.63;99488.13;4412935;32;33570;-85
2023/07/19 06:56:35;;;;;;;2.58;1.52;;;;;;;29.40;45.60;99493.56;4422899;32;33060;-85
2023/07/19 06:59:03;;;;;;;1.60;1.10;;;;;;;29.19;47.09;99488.97;4413001;32;34870;-85
2023/07/19 07:01:30;;;;;;;1.73;0.95;;;;;;;29.37;46.60;99477.63;4412834;32;33545;-85
2023/07/19 07:03:58;;;;;;;0.50;0.50;;;;;;;29.30;46.91;99475.72;4422151;32;33834;-85
2023/07/19 07:06:26;;;;;;;1.23;1.12;;;;;;;29.27;46.48;99473.38;4431101;32;33334;-85
2023/07/19 07:08:53;;;;;;;2.92;1.20;;;;;;;29.13;47.04;99465.28;4428954;32;34806;-85
2023/07/19 07:11:21;;;;;;;0.50;0.50;;;;;;;29.29;47.16;99463.16;4410751;32;33478;-86
2023/07/19 07:13:49;;;;;;;0.35;0.35;;;;;;;29.36;46.18;99465.06;4409223;32;34483;-85
2023/07/19 07:16:17;;;;;;;0.73;0.73;;;;;;;29.14;46.90;99469.69;4410424;32;34566;-85
2023/07/19 07:18:45;;;;;;;0.98;0.90;;;;;;;29.11;46.22;99461.94;4401085;32;32322;-85
2023/07/19 07:21:13;;;;;;;0.68;0.68;;;;;;;28.97;46.52;99467.25;4411913;32;33000;-86
2023/07/19 07:23:41;;;;;;;1.30;1.20;;;;;;;29.24;46.79;99468.31;4404993;32;32907;-86
2023/07/19 07:26:09;;;;;;;1.52;1.42;;;;;;;29.20;46.77;99477.06;4418892;32;33525;-86
2023/07/19 07:28:36;;;;;;;0.62;0.62;;;;;;;29.28;47.61;99475.03;4432408;32;34098;-85
2023/07/19 07:31:09;;;;;;;7.68;0.70;;;;;;;29.41;46.83;99479.75;4413150;32;33739;-86
2023/07/19 07:33:38;;;;;;;1.08;0.73;;;;;;;29.74;47.15;99481.94;4417899;32;33342;-86
2023/07/19 07:36:06;;;;;;;3.92;1.15;;;;;;;29.75;45.91;99487.16;4422717;32;33558;-85
2023/07/19 07:38:34;;;;;;;3.67;1.90;;;;;;;29.49;44.65;99486.94;4414194;32;33924;-85
2023/07/19 07:41:05;;;;;;;0.80;0.80;;;;;;;29.84;45.87;99482.41;4409565;32;33558;-86
2023/07/19 07:43:32;;;;;;;1.00;0.65;;;;;;;30.09;46.17;99482.78;4412132;32;33890;-86
2023/07/19 07:46:00;;;;;;;1.08;0.98;;;;;;;29.80;44.11;99487.41;4413956;32;34156;-86
2023/07/19 07:48:28;;;;;;;6.28;1.12;;;;;;;30.05;44.16;99482.34;4404954;32;33594;-85
2023/07/19 07:50:56;;;;;;;1.83;0.80;;;;;;;30.14;43.62;99485.75;4411511;32;34068;-86
2023/07/19 07:53:23;;;;;;;1.05;0.93;;;;;;;30.42;44.50;99471.22;4410128;32;33539;-85
2023/07/19 07:55:51;;;;;;;1.85;0.70;;;;;;;30.51;43.55;99480.91;4415646;32;33433;-86
2023/07/19 07:58:21;;;;;;;1.77;1.58;;;;;;;30.13;43.58;99489.53;4413799;32;32558;-86
2023/07/19 08:00:49;;;;;;;0.65;0.65;;;;;;;30.21;44.66;99489.38;4409910;32;34268;-86
2023/07/19 08:03:17;;;;;;;1.65;1.37;;;;;;;30.46;44.20;99478.81;4424806;32;33739;-86
2023/07/19 08:05:44;;;;;;;2.40;0.52;;;;;;;30.20;44.29;99474.09;4428041;32;33495;-86
2023/07/19 08:08:11;;;;;;;0.93;0.93;;;;;;;30.15;45.50;99470.25;4418039;32;33015;-86
2023/07/19 08:10:39;;;;;;;0.77;0.77;;;;;;;29.95;44.47;99470.13;4430192;32;33557;-85
2023/07/19 08:13:07;;;;;;;0.50;0.50;;;;;;;30.36;44.27;99456.56;4404140;32;33652;-86
2023/07/19 08:15:35;;;;;;;0.82;0.82;;;;;;;30.05;44.94;99459.72;4402900;32;33433;-86
2023/07/19 08:18:03;;;;;;;0.77;0.77;;;;;;;30.03;44.38;99467.25;4402732;32;33767;-86
2023/07/19 08:20:30;;;;;;;0.88;0.70;;;;;;;30.35;44.00;99458.44;4404386;32;33198;-86
2023/07/19 08:22:58;;;;;;;2.50;1.30;;;;;;;30.37;44.33;99457.38;4404878;32;32763;-86
2023/07/19 08:25:29;;;;;;;1.35;1.25;;;;;;;30.21;44.22;99453.97;4414614;32;33416;-86
2023/07/19 08:27:57;;;;;;;0.85;0.85;;;;;;;30.68;43.68;99454.16;4416223;32;34239;-86
2023/07/19 08:30:24;;;;;;;0.50;0.50;;;;;;;30.17;44.08;99454.59;4410579;32;33597;-86
2023/07/19 08:32:53;;;;;;;1.25;0.57;;;;;;;30.48;43.40;99459.50;4409136;32;34574;-86
2023/07/19 08:35:20;;;;;;;1.17;1.02;;;;;;;30.24;44.28;99458.16;4414689;32;32614;-86
2023/07/19 08:37:48;;;;;;;1.25;0.90;;;;;;;30.65;44.19;99447.22;4411925;32;33039;-86
2023/07/19 08:40:16;;;;;;;0.75;0.75;;;;;;;30.80;44.52;99458.81;4414096;32;33639;-86
2023/07/19 08:42:44;;;;;;;0.20;0.20;;;;;;;31.11;42.81;99451.94;4411756;32;34640;-86
2023/07/19 08:45:12;;;;;;;0.50;0.47;;;;;;;31.66;40.70;99466.22;4409139;32;34537;-86
2023/07/19 08:47:40;;;;;;;2.45;0.90;;;;;;;31.65;41.00;99466.44;4403576;32;34843;-86
2023/07/19 08:50:11;;;;;;;0.55;0.55;;;;;;;31.77;40.83;99468.34;4402198;32;31725;-86
2023/07/19 08:52:39;;;;;;;0.98;0.70;;;;;;;32.13;40.55;99467.00;4412994;32;33296;-86
2023/07/19 08:55:07;;;;;;;2.12;1.58;;;;;;;32.26;38.93;99466.97;4410143;32;34003;-86
2023/07/19 08:57:39;;;;;;;0.50;0.50;;;;;;;32.39;39.64;99462.56;4407306;32;34700;-86
2023/07/19 09:00:08;;;;;;;0.50;0.50;;;;;;;32.48;39.20;99461.25;4417519;32;33277;-87
2023/07/19 09:02:36;;;;;;;1.02;0.98;;;;;;;32.11;38.50;99471.84;4426376;32;33777;-86
2023/07/19 09:05:13;;;;;;;2.95;1.70;;;;;;;32.23;38.98;99474.75;4412770;32;33571;-87
2023/07/19 09:07:41;;;;;;;6.87;1.02;;;;;;;32.17;37.37;99468.25;4409193;32;33985;-87
2023/07/19 09:10:09;;;;;;;1.23;1.12;;;;;;;32.35;37.79;99468.41;4416766;32;34534;-87
2023/07/19 09:12:42;;;;;;;0.68;0.62;;;;;;;32.25;37.37;99467.19;4416554;32;34202;-87
2023/07/19 09:15:12;;;;;;;7.03;0.98;;;;;;;32.36;38.73;99458.31;4401333;32;33807;-87
2023/07/19 09:17:46;;;;;;;0.43;0.43;;;;;;;32.67;38.12;99459.47;4423694;32;33891;-86
2023/07/19 09:20:15;;;;;;;3.12;1.40;;;;;;;32.44;37.69;99460.00;4414486;32;33618;-86
2023/07/19 09:22:43;;;;;;;1.17;1.08;;;;;;;32.28;39.34;99455.81;4428930;32;34575;-86
2023/07/19 09:25:11;;;;;;;0.98;0.98;;;;;;;31.78;38.76;99467.28;4413455;32;33580;-86
2023/07/19 09:27:43;;;;;;;0.75;0.65;;;;;;;32.27;39.28;99460.44;4416033;32;34833;-86
2023/07/19 09:30:11;;;;;;;1.08;1.00;;;;;;;32.26;38.95;99469.69;4420797;32;32510;-86
2023/07/19 09:32:40;;;;;;;4.32;1.77;;;;;;;32.20;38.12;99458.81;4426992;32;33842;-87
2023/07/19 09:35:08;;;;;;;1.92;1.12;;;;;;;32.43;38.29;99463.75;4414203;32;33718;-86
2023/07/19 09:37:36;;;;;;;1.00;1.00;;;;;;;32.29;37.83;99452.87;4413018;32;33821;-87
2023/07/19 09:40:04;;;;;;;2.35;1.85;;;;;;;32.51;38.55;99458.06;4418480;32;33133;-86
2023/07/19 09:42:36;;;;;;;1.42;1.33;;;;;;;32.52;37.42;99455.13;4418353;32;34625;-87
2023/07/19 09:45:06;;;;;;;1.00;0.97;;;;;;;32.51;38.41;99458.91;4430350;32;34129;-86
2023/07/19 09:47:35;;;;;;;0.47;0.47;;;;;;;32.21;38.77;99453.13;4408578;32;33421;-86
2023/07/19 09:50:06;;;;;;;1.15;1.05;;;;;;;32.31;38.67;99458.97;4421324;32;33295;-86
2023/07/19 09:52:37;;;;;;;1.67;0.90;;;;;;;32.29;38.84;99458.34;4426249;32;33556;-87
2023/07/19 09:55:06;;;;;;;1.95;0.73;;;;;;;32.41;38.38;99465.88;4409752;32;34091;-86
2023/07/19 09:57:37;;;;;;;2.97;1.67;;;;;;;32.44;37.98;99460.00;4401853;32;34330;-86
2023/07/19 10:00:05;;;;;;;1.48;0.93;;;;;;;32.36;38.52;99452.84;4442674;32;33327;-86
2023/07/19 10:02:34;;;;;;;2.70;0.93;;;;;;;32.31;38.15;99453.50;4395481;32;32500;-87
2023/07/19 10:05:08;;;;;;;1.92;1.45;;;;;;;32.48;37.57;99453.88;4414880;32;33166;-86
2023/07/19 10:07:36;;;;;;;0.70;0.70;;;;;;;32.24;35.75;99444.50;4416130;32;33313;-87
2023/07/19 10:10:19;;;;;;;1.65;0.82;;;;;;;32.37;36.72;99447.19;4414518;32;33441;-87
2023/07/19 10:12:48;;;;;;;1.58;0.85;;;;;;;32.61;35.74;99439.28;4424529;32;33530;-87
2023/07/19 10:15:17;;;;;;;1.00;1.00;;;;;;;32.93;36.42;99442.09;4408068;32;33947;-86
2023/07/19 10:17:58;;;;;;;0.65;0.62;;;;;;;33.16;34.51;99434.12;4409958;32;34516;-87
2023/07/19 10:20:32;;;;;;;1.48;0.85;;;;;;;33.13;35.26;99431.81;4409730;32;33187;-86
2023/07/19 10:23:06;;;;;;;0.73;0.65;;;;;;;32.98;36.02;99423.09;4416735;32;33895;-86
2023/07/19 10:25:38;;;;;;;0.50;0.50;;;;;;;32.91;36.79;99425.06;4408507;32;33909;-87
2023/07/19 10:28:10;;;;;;;1.40;1.30;;;;;;;33.17;36.98;99419.38;4416063;32;34239;-87
2023/07/19 10:30:58;;;;;;;6.03;0.95;;;;;;;32.93;36.35;99420.19;4438954;32;33939;-87
2023/07/19 10:33:46;;;;;;;0.65;0.65;;;;;;;33.11;36.00;99414.81;4426120;32;34552;-87
2023/07/19 10:36:14;;;;;;;2.92;0.85;;;;;;;32.89;34.38;99404.19;4427352;32;33920;-87
2023/07/19 10:38:41;;;;;;;5.25;2.28;;;;;;;32.77;35.34;99405.16;4421716;32;34510;-87
2023/07/19 10:41:11;;;;;;;2.30;1.30;;;;;;;33.13;34.76;99396.25;4427964;32;32840;-87
2023/07/19 10:43:38;;;;;;;0.37;0.37;;;;;;;33.17;34.48;99386.56;4412667;32;34207;-87
2023/07/19 10:46:10;;;;;;;2.10;1.25;;;;;;;32.80;35.88;99388.28;4402889;32;32395;-87
2023/07/19 10:48:38;;;;;;;0.90;0.90;;;;;;;32.99;36.27;99375.56;4413503;32;31341;-87
2023/07/19 10:51:09;;;;;;;0.50;0.47;;;;;;;33.26;34.40;99370.69;4413806;32;33242;-87
2023/07/19 10:53:50;;;;;;;0.85;0.55;;;;;;;33.41;33.54;99362.13;4414386;32;33858;-86
2023/07/19 10:56:18;;;;;;;2.00;1.08;;;;;;;33.12;34.02;99365.34;4424861;32;34915;-87
2023/07/19 10:58:47;;;;;;;0.98;0.62;;;;;;;32.73;33.97;99371.94;4409364;32;33481;-87
2023/07/19 11:01:16;;;;;;;2.62;1.40;;;;;;;32.66;34.01;99382.06;4403755;32;33517;-87
2023/07/19 11:03:47;;;;;;;0.17;0.17;;;;;;;32.78;34.03;99391.25;4416693;32;32128;-87
2023/07/19 11:06:15;;;;;;;1.85;1.02;;;;;;;33.35;36.23;99392.06;4408334;32;34756;-87
2023/07/19 11:08:44;;;;;;;1.17;0.95;;;;;;;33.46;35.29;99397.91;4422081;32;34521;-87
2023/07/19 11:11:13;;;;;;;1.10;1.00;;;;;;;33.99;31.49;99391.87;4399707;32;32692;-87
2023/07/19 11:13:41;;;;;;;1.15;0.73;;;;;;;34.05;33.13;99389.06;4410199;32;33398;-87
2023/07/19 11:16:10;;;;;;;1.65;1.48;;;;;;;33.92;30.89;99380.97;4429079;32;34059;-87
2023/07/19 11:18:40;;;;;;;1.85;0.45;;;;;;;34.20;31.23;99383.19;4410788;32;34186;-87
2023/07/19 11:21:08;;;;;;;1.02;0.80;;;;;;;34.30;29.90;99372.50;4411535;32;34726;-87
2023/07/19 11:23:41;;;;;;;0.68;0.68;;;;;;;34.62;30.24;99366.81;4410712;32;34083;-87
2023/07/19 11:26:12;;;;;;;1.40;1.37;;;;;;;34.61;30.87;99367.87;4410740;32;33364;-87
2023/07/19 11:28:47;;;;;;;7.40;1.12;;;;;;;34.56;29.06;99382.28;4411517;32;34091;-87
2023/07/19 11:31:28;;;;;;;0.62;0.57;;;;;;;34.69;28.82;99370.28;4424270;32;33499;-87
2023/07/19 11:34:29;;;;;;;1.40;1.33;;;;;;;35.23;29.98;99362.91;4411855;32;32535;-87
2023/07/19 11:36:57;;;;;;;0.98;0.80;;;;;;;35.29;28.33;99361.94;4420590;32;33541;-87
2023/07/19 11:39:25;;;;;;;4.32;1.75;;;;;;;35.17;28.54;99358.34;4423119;32;34076;-87
2023/07/19 11:41:52;;;;;;;0.65;0.65;;;;;;;35.25;28.87;99359.91;4398612;32;32943;-87